sensor_id;sensor_type;location;lat;lon;timestamp;P1;durP1;ratioP1;P2;durP2;ratioP2
11203;SDS011;5659;49.408;11.116;2023-09-19T00:00:26;5.32;;;3.08;;
11203;SDS011;5659;49.408;11.116;2023-09-19T00:02:53;4.68;;;2.78;;
11203;SDS011;5659;49.408;11.116;2023-09-19T00:05:20;6.15;;;2.50;;
11203;SDS011;5659;49.408;11.116;2023-09-19T00:07:48;6.60;;;2.65;;
11203;SDS011;5659;49.408;11.116;2023-09-19T00:10:16;7.00;;;2.80;;
11203;SDS011;5659;49.408;11.116;2023-09-19T00:12:44;6.68;;;2.60;;
11203;SDS011;5659;49.408;11.116;2023-09-19T00:15:10;5.43;;;3.08;;
11203;SDS011;5659;49.408;11.116;2023-09-19T00:17:36;6.00;;;2.67;;
11203;SDS011;5659;49.408;11.116;2023-09-19T00:20:03;4.50;;;2.50;;
11203;SDS011;5659;49.408;11.116;2023-09-19T00:22:38;9.15;;;2.92;;
11203;SDS011;5659;49.408;11.116;2023-09-19T00:25:04;6.43;;;2.75;;
11203;SDS011;5659;49.408;11.116;2023-09-19T00:27:31;4.22;;;2.85;;
11203;SDS011;5659;49.408;11.116;2023-09-19T00:29:58;7.80;;;2.70;;
11203;SDS011;5659;49.408;11.116;2023-09-19T00:32:25;5.88;;;2.55;;
11203;SDS011;5659;49.408;11.116;2023-09-19T00:34:56;4.82;;;2.60;;
11203;SDS011;5659;49.408;11.116;2023-09-19T00:37:22;7.15;;;2.95;;
11203;SDS011;5659;49.408;11.116;2023-09-19T00:39:49;3.95;;;2.63;;
11203;SDS011;5659;49.408;11.116;2023-09-19T00:42:21;3.65;;;2.50;;
11203;SDS011;5659;49.408;11.116;2023-09-19T00:44:47;4.85;;;2.40;;
11203;SDS011;5659;49.408;11.116;2023-09-19T00:47:16;5.38;;;2.35;;
11203;SDS011;5659;49.408;11.116;2023-09-19T00:49:42;5.45;;;2.80;;
11203;SDS011;5659;49.408;11.116;2023-09-19T00:52:08;9.68;;;2.40;;
11203;SDS011;5659;49.408;11.116;2023-09-19T00:54:35;4.20;;;2.40;;
11203;SDS011;5659;49.408;11.116;2023-09-19T00:57:01;3.95;;;2.38;;
11203;SDS011;5659;49.408;11.116;2023-09-19T00:59:28;2.50;;;2.30;;
11203;SDS011;5659;49.408;11.116;2023-09-19T01:01:56;3.75;;;2.50;;
11203;SDS011;5659;49.408;11.116;2023-09-19T01:04:22;6.32;;;3.13;;
11203;SDS011;5659;49.408;11.116;2023-09-19T01:06:49;5.50;;;2.60;;
11203;SDS011;5659;49.408;11.116;2023-09-19T01:09:19;4.38;;;2.60;;
11203;SDS011;5659;49.408;11.116;2023-09-19T01:11:45;5.90;;;2.65;;
11203;SDS011;5659;49.408;11.116;2023-09-19T01:16:50;5.00;;;2.78;;
11203;SDS011;5659;49.408;11.116;2023-09-19T01:22:00;6.22;;;2.47;;
11203;SDS011;5659;49.408;11.116;2023-09-19T01:24:46;4.85;;;2.80;;
11203;SDS011;5659;49.408;11.116;2023-09-19T01:29:46;3.28;;;2.33;;
11203;SDS011;5659;49.408;11.116;2023-09-19T01:32:16;5.22;;;2.50;;
11203;SDS011;5659;49.408;11.116;2023-09-19T01:35:04;9.13;;;2.55;;
11203;SDS011;5659;49.408;11.116;2023-09-19T01:37:30;6.07;;;2.47;;
11203;SDS011;5659;49.408;11.116;2023-09-19T01:40:00;2.90;;;2.47;;
11203;SDS011;5659;49.408;11.116;2023-09-19T01:47:35;4.80;;;2.38;;
11203;SDS011;5659;49.408;11.116;2023-09-19T01:52:30;3.58;;;2.42;;
11203;SDS011;5659;49.408;11.116;2023-09-19T01:55:01;6.25;;;2.35;;
11203;SDS011;5659;49.408;11.116;2023-09-19T01:57:40;6.35;;;2.30;;
11203;SDS011;5659;49.408;11.116;2023-09-19T02:00:08;5.25;;;2.00;;
11203;SDS011;5659;49.408;11.116;2023-09-19T02:02:37;3.63;;;1.98;;
11203;SDS011;5659;49.408;11.116;2023-09-19T02:05:06;6.82;;;2.20;;
11203;SDS011;5659;49.408;11.116;2023-09-19T02:07:32;2.38;;;2.17;;
11203;SDS011;5659;49.408;11.116;2023-09-19T02:10:00;4.93;;;2.13;;
11203;SDS011;5659;49.408;11.116;2023-09-19T02:12:28;3.63;;;2.17;;
11203;SDS011;5659;49.408;11.116;2023-09-19T02:14:55;4.63;;;2.13;;
11203;SDS011;5659;49.408;11.116;2023-09-19T02:17:22;4.32;;;2.10;;
11203;SDS011;5659;49.408;11.116;2023-09-19T02:19:51;4.57;;;2.15;;
11203;SDS011;5659;49.408;11.116;2023-09-19T02:22:17;4.78;;;1.90;;
11203;SDS011;5659;49.408;11.116;2023-09-19T02:24:43;4.32;;;1.88;;
11203;SDS011;5659;49.408;11.116;2023-09-19T02:27:09;3.58;;;2.00;;
11203;SDS011;5659;49.408;11.116;2023-09-19T02:29:37;4.28;;;2.30;;
11203;SDS011;5659;49.408;11.116;2023-09-19T02:32:03;4.07;;;2.10;;
11203;SDS011;5659;49.408;11.116;2023-09-19T02:34:31;5.05;;;1.83;;
11203;SDS011;5659;49.408;11.116;2023-09-19T02:36:57;5.07;;;2.33;;
11203;SDS011;5659;49.408;11.116;2023-09-19T02:39:23;4.28;;;2.03;;
11203;SDS011;5659;49.408;11.116;2023-09-19T02:41:49;7.20;;;2.03;;
11203;SDS011;5659;49.408;11.116;2023-09-19T02:44:15;5.90;;;2.13;;
11203;SDS011;5659;49.408;11.116;2023-09-19T02:46:41;3.08;;;2.20;;
11203;SDS011;5659;49.408;11.116;2023-09-19T02:49:07;4.07;;;2.20;;
11203;SDS011;5659;49.408;11.116;2023-09-19T02:51:33;2.67;;;2.03;;
11203;SDS011;5659;49.408;11.116;2023-09-19T02:53:59;4.28;;;2.00;;
11203;SDS011;5659;49.408;11.116;2023-09-19T02:56:27;5.00;;;2.17;;
11203;SDS011;5659;49.408;11.116;2023-09-19T02:58:54;3.30;;;2.03;;
11203;SDS011;5659;49.408;11.116;2023-09-19T03:01:21;6.15;;;2.08;;
11203;SDS011;5659;49.408;11.116;2023-09-19T03:03:47;3.47;;;1.92;;
11203;SDS011;5659;49.408;11.116;2023-09-19T03:06:13;3.65;;;2.03;;
11203;SDS011;5659;49.408;11.116;2023-09-19T03:08:39;5.80;;;2.03;;
11203;SDS011;5659;49.408;11.116;2023-09-19T03:11:07;1.80;;;1.58;;
11203;SDS011;5659;49.408;11.116;2023-09-19T03:13:36;4.75;;;1.85;;
11203;SDS011;5659;49.408;11.116;2023-09-19T03:16:03;5.25;;;2.10;;
11203;SDS011;5659;49.408;11.116;2023-09-19T03:18:35;3.00;;;1.90;;
11203;SDS011;5659;49.408;11.116;2023-09-19T03:21:01;5.28;;;1.90;;
11203;SDS011;5659;49.408;11.116;2023-09-19T03:23:28;3.75;;;2.10;;
11203;SDS011;5659;49.408;11.116;2023-09-19T03:25:54;5.88;;;1.90;;
11203;SDS011;5659;49.408;11.116;2023-09-19T03:28:21;2.42;;;1.90;;
11203;SDS011;5659;49.408;11.116;2023-09-19T03:30:58;3.45;;;1.90;;
11203;SDS011;5659;49.408;11.116;2023-09-19T03:33:24;3.35;;;1.80;;
11203;SDS011;5659;49.408;11.116;2023-09-19T03:35:54;9.80;;;2.20;;
11203;SDS011;5659;49.408;11.116;2023-09-19T03:38:20;6.28;;;2.03;;
11203;SDS011;5659;49.408;11.116;2023-09-19T03:40:47;5.07;;;2.20;;
11203;SDS011;5659;49.408;11.116;2023-09-19T03:43:13;2.95;;;2.00;;
11203;SDS011;5659;49.408;11.116;2023-09-19T03:45:39;4.63;;;2.08;;
11203;SDS011;5659;49.408;11.116;2023-09-19T03:48:09;3.90;;;1.77;;
11203;SDS011;5659;49.408;11.116;2023-09-19T03:50:35;2.63;;;1.50;;
11203;SDS011;5659;49.408;11.116;2023-09-19T03:53:01;4.22;;;1.90;;
11203;SDS011;5659;49.408;11.116;2023-09-19T03:55:28;3.45;;;1.95;;
11203;SDS011;5659;49.408;11.116;2023-09-19T03:57:55;2.47;;;1.75;;
11203;SDS011;5659;49.408;11.116;2023-09-19T04:00:21;4.50;;;2.08;;
11203;SDS011;5659;49.408;11.116;2023-09-19T04:02:51;4.53;;;1.92;;
11203;SDS011;5659;49.408;11.116;2023-09-19T04:05:17;3.90;;;1.92;;
11203;SDS011;5659;49.408;11.116;2023-09-19T04:07:43;4.00;;;2.00;;
11203;SDS011;5659;49.408;11.116;2023-09-19T04:10:09;2.65;;;1.70;;
11203;SDS011;5659;49.408;11.116;2023-09-19T04:12:36;3.15;;;1.77;;
11203;SDS011;5659;49.408;11.116;2023-09-19T04:15:03;3.90;;;2.15;;
11203;SDS011;5659;49.408;11.116;2023-09-19T04:17:29;2.45;;;2.03;;
11203;SDS011;5659;49.408;11.116;2023-09-19T04:19:55;3.28;;;2.00;;
11203;SDS011;5659;49.408;11.116;2023-09-19T04:22:21;3.85;;;2.28;;
11203;SDS011;5659;49.408;11.116;2023-09-19T04:24:47;3.42;;;1.98;;
11203;SDS011;5659;49.408;11.116;2023-09-19T04:27:13;4.45;;;2.08;;
11203;SDS011;5659;49.408;11.116;2023-09-19T04:29:39;5.13;;;2.35;;
11203;SDS011;5659;49.408;11.116;2023-09-19T04:32:06;2.90;;;1.98;;
11203;SDS011;5659;49.408;11.116;2023-09-19T04:34:32;5.38;;;2.45;;
11203;SDS011;5659;49.408;11.116;2023-09-19T04:37:03;3.90;;;2.10;;
11203;SDS011;5659;49.408;11.116;2023-09-19T04:39:29;6.22;;;1.88;;
11203;SDS011;5659;49.408;11.116;2023-09-19T04:41:55;7.65;;;2.65;;
11203;SDS011;5659;49.408;11.116;2023-09-19T04:44:22;4.65;;;2.17;;
11203;SDS011;5659;49.408;11.116;2023-09-19T04:46:48;8.20;;;2.15;;
11203;SDS011;5659;49.408;11.116;2023-09-19T04:49:13;2.90;;;2.13;;
11203;SDS011;5659;49.408;11.116;2023-09-19T04:51:39;6.38;;;2.72;;
11203;SDS011;5659;49.408;11.116;2023-09-19T04:54:05;3.33;;;2.42;;
11203;SDS011;5659;49.408;11.116;2023-09-19T04:56:32;5.30;;;2.28;;
11203;SDS011;5659;49.408;11.116;2023-09-19T04:58:59;5.63;;;2.45;;
11203;SDS011;5659;49.408;11.116;2023-09-19T05:01:25;7.10;;;2.35;;
11203;SDS011;5659;49.408;11.116;2023-09-19T05:03:52;6.97;;;2.50;;
11203;SDS011;5659;49.408;11.116;2023-09-19T05:06:18;3.33;;;2.35;;
11203;SDS011;5659;49.408;11.116;2023-09-19T05:08:46;4.85;;;2.35;;
11203;SDS011;5659;49.408;11.116;2023-09-19T05:11:15;4.78;;;2.10;;
11203;SDS011;5659;49.408;11.116;2023-09-19T05:13:41;4.80;;;2.20;;
11203;SDS011;5659;49.408;11.116;2023-09-19T05:16:08;4.28;;;2.05;;
11203;SDS011;5659;49.408;11.116;2023-09-19T05:18:35;3.75;;;2.10;;
11203;SDS011;5659;49.408;11.116;2023-09-19T05:21:04;4.65;;;2.10;;
11203;SDS011;5659;49.408;11.116;2023-09-19T05:23:30;2.47;;;1.80;;
11203;SDS011;5659;49.408;11.116;2023-09-19T05:25:56;4.40;;;2.20;;
11203;SDS011;5659;49.408;11.116;2023-09-19T05:28:25;3.10;;;1.88;;
11203;SDS011;5659;49.408;11.116;2023-09-19T05:30:51;9.00;;;2.30;;
11203;SDS011;5659;49.408;11.116;2023-09-19T05:33:18;4.13;;;2.40;;
11203;SDS011;5659;49.408;11.116;2023-09-19T05:35:44;3.22;;;2.10;;
11203;SDS011;5659;49.408;11.116;2023-09-19T05:38:12;3.47;;;2.20;;
11203;SDS011;5659;49.408;11.116;2023-09-19T05:40:39;5.45;;;2.50;;
11203;SDS011;5659;49.408;11.116;2023-09-19T05:43:07;4.70;;;1.90;;
11203;SDS011;5659;49.408;11.116;2023-09-19T05:45:33;5.50;;;1.80;;
11203;SDS011;5659;49.408;11.116;2023-09-19T05:48:07;5.20;;;2.10;;
11203;SDS011;5659;49.408;11.116;2023-09-19T05:50:33;2.83;;;1.80;;
11203;SDS011;5659;49.408;11.116;2023-09-19T05:52:59;4.93;;;1.90;;
11203;SDS011;5659;49.408;11.116;2023-09-19T05:55:25;4.82;;;2.10;;
11203;SDS011;5659;49.408;11.116;2023-09-19T05:57:53;4.40;;;2.20;;
11203;SDS011;5659;49.408;11.116;2023-09-19T06:00:20;4.28;;;1.90;;
11203;SDS011;5659;49.408;11.116;2023-09-19T06:02:52;3.20;;;1.88;;
11203;SDS011;5659;49.408;11.116;2023-09-19T06:05:18;6.00;;;2.20;;
11203;SDS011;5659;49.408;11.116;2023-09-19T06:07:44;2.63;;;1.80;;
11203;SDS011;5659;49.408;11.116;2023-09-19T06:10:11;3.90;;;2.00;;
11203;SDS011;5659;49.408;11.116;2023-09-19T06:12:38;6.15;;;2.13;;
11203;SDS011;5659;49.408;11.116;2023-09-19T06:15:04;3.22;;;1.98;;
11203;SDS011;5659;49.408;11.116;2023-09-19T06:17:31;2.00;;;1.52;;
11203;SDS011;5659;49.408;11.116;2023-09-19T06:19:56;3.40;;;1.80;;
11203;SDS011;5659;49.408;11.116;2023-09-19T06:22:24;7.32;;;2.00;;
11203;SDS011;5659;49.408;11.116;2023-09-19T06:24:50;3.03;;;1.77;;
11203;SDS011;5659;49.408;11.116;2023-09-19T06:27:16;5.40;;;1.85;;
11203;SDS011;5659;49.408;11.116;2023-09-19T06:29:42;2.85;;;1.92;;
11203;SDS011;5659;49.408;11.116;2023-09-19T06:32:08;3.15;;;1.95;;
11203;SDS011;5659;49.408;11.116;2023-09-19T06:34:35;3.80;;;1.55;;
11203;SDS011;5659;49.408;11.116;2023-09-19T06:37:01;6.75;;;2.00;;
11203;SDS011;5659;49.408;11.116;2023-09-19T06:39:28;7.07;;;1.67;;
11203;SDS011;5659;49.408;11.116;2023-09-19T06:41:54;2.03;;;1.70;;
11203;SDS011;5659;49.408;11.116;2023-09-19T06:44:20;2.95;;;1.70;;
11203;SDS011;5659;49.408;11.116;2023-09-19T06:46:49;2.90;;;2.25;;
11203;SDS011;5659;49.408;11.116;2023-09-19T06:49:16;3.78;;;2.20;;
11203;SDS011;5659;49.408;11.116;2023-09-19T06:51:42;3.58;;;1.73;;
11203;SDS011;5659;49.408;11.116;2023-09-19T06:54:08;4.30;;;2.45;;
11203;SDS011;5659;49.408;11.116;2023-09-19T06:56:34;4.93;;;2.00;;
11203;SDS011;5659;49.408;11.116;2023-09-19T06:59:00;4.72;;;2.20;;
11203;SDS011;5659;49.408;11.116;2023-09-19T07:01:28;3.38;;;1.98;;
11203;SDS011;5659;49.408;11.116;2023-09-19T07:03:54;3.90;;;2.33;;
11203;SDS011;5659;49.408;11.116;2023-09-19T07:06:20;4.53;;;2.35;;
11203;SDS011;5659;49.408;11.116;2023-09-19T07:08:46;3.78;;;1.90;;
11203;SDS011;5659;49.408;11.116;2023-09-19T07:11:12;2.78;;;1.90;;
11203;SDS011;5659;49.408;11.116;2023-09-19T07:13:39;4.85;;;2.20;;
11203;SDS011;5659;49.408;11.116;2023-09-19T07:16:04;5.45;;;2.40;;
11203;SDS011;5659;49.408;11.116;2023-09-19T07:18:31;2.80;;;1.95;;
11203;SDS011;5659;49.408;11.116;2023-09-19T07:20:57;6.05;;;2.00;;
11203;SDS011;5659;49.408;11.116;2023-09-19T07:23:29;3.70;;;1.80;;
11203;SDS011;5659;49.408;11.116;2023-09-19T07:26:00;4.30;;;1.88;;
11203;SDS011;5659;49.408;11.116;2023-09-19T07:28:26;5.55;;;1.92;;
11203;SDS011;5659;49.408;11.116;2023-09-19T07:30:53;2.90;;;1.70;;
11203;SDS011;5659;49.408;11.116;2023-09-19T07:33:19;4.95;;;1.83;;
11203;SDS011;5659;49.408;11.116;2023-09-19T07:35:46;4.43;;;2.00;;
11203;SDS011;5659;49.408;11.116;2023-09-19T07:38:12;2.65;;;1.80;;
11203;SDS011;5659;49.408;11.116;2023-09-19T07:40:38;7.07;;;1.83;;
11203;SDS011;5659;49.408;11.116;2023-09-19T07:43:04;2.83;;;1.77;;
11203;SDS011;5659;49.408;11.116;2023-09-19T07:45:31;5.40;;;1.80;;
11203;SDS011;5659;49.408;11.116;2023-09-19T07:47:58;6.05;;;1.80;;
11203;SDS011;5659;49.408;11.116;2023-09-19T07:50:31;4.68;;;1.88;;
11203;SDS011;5659;49.408;11.116;2023-09-19T07:52:58;2.30;;;1.70;;
11203;SDS011;5659;49.408;11.116;2023-09-19T07:55:24;2.28;;;1.58;;
11203;SDS011;5659;49.408;11.116;2023-09-19T07:57:51;3.08;;;2.03;;
11203;SDS011;5659;49.408;11.116;2023-09-19T08:00:18;5.22;;;1.85;;
11203;SDS011;5659;49.408;11.116;2023-09-19T08:02:44;5.63;;;1.75;;
11203;SDS011;5659;49.408;11.116;2023-09-19T08:05:11;4.05;;;1.70;;
11203;SDS011;5659;49.408;11.116;2023-09-19T08:07:40;2.58;;;1.90;;
11203;SDS011;5659;49.408;11.116;2023-09-19T08:10:07;3.55;;;1.65;;
11203;SDS011;5659;49.408;11.116;2023-09-19T08:12:36;6.82;;;2.05;;
11203;SDS011;5659;49.408;11.116;2023-09-19T08:15:02;5.95;;;1.90;;
11203;SDS011;5659;49.408;11.116;2023-09-19T08:17:28;4.38;;;2.00;;
11203;SDS011;5659;49.408;11.116;2023-09-19T08:19:54;4.38;;;1.67;;
11203;SDS011;5659;49.408;11.116;2023-09-19T08:22:20;5.53;;;2.25;;
11203;SDS011;5659;49.408;11.116;2023-09-19T08:24:48;2.03;;;1.58;;
11203;SDS011;5659;49.408;11.116;2023-09-19T08:27:14;3.28;;;1.90;;
11203;SDS011;5659;49.408;11.116;2023-09-19T08:29:43;5.80;;;1.65;;
11203;SDS011;5659;49.408;11.116;2023-09-19T08:32:09;3.75;;;1.92;;
11203;SDS011;5659;49.408;11.116;2023-09-19T08:34:35;3.03;;;1.50;;
11203;SDS011;5659;49.408;11.116;2023-09-19T08:37:03;3.60;;;1.58;;
11203;SDS011;5659;49.408;11.116;2023-09-19T08:39:29;5.20;;;1.80;;
11203;SDS011;5659;49.408;11.116;2023-09-19T08:41:58;3.35;;;1.80;;
11203;SDS011;5659;49.408;11.116;2023-09-19T08:44:25;2.88;;;1.83;;
11203;SDS011;5659;49.408;11.116;2023-09-19T08:46:53;3.80;;;1.60;;
11203;SDS011;5659;49.408;11.116;2023-09-19T08:52:04;4.80;;;1.80;;
11203;SDS011;5659;49.408;11.116;2023-09-19T08:54:32;6.00;;;1.90;;
11203;SDS011;5659;49.408;11.116;2023-09-19T08:57:00;4.85;;;1.90;;
11203;SDS011;5659;49.408;11.116;2023-09-19T08:59:33;2.17;;;1.60;;
11203;SDS011;5659;49.408;11.116;2023-09-19T09:02:00;4.30;;;2.22;;
11203;SDS011;5659;49.408;11.116;2023-09-19T09:04:28;2.75;;;1.58;;
11203;SDS011;5659;49.408;11.116;2023-09-19T09:06:55;4.65;;;1.73;;
11203;SDS011;5659;49.408;11.116;2023-09-19T09:09:23;5.47;;;1.77;;
11203;SDS011;5659;49.408;11.116;2023-09-19T09:11:49;2.47;;;1.38;;
11203;SDS011;5659;49.408;11.116;2023-09-19T09:14:19;4.28;;;1.73;;
11203;SDS011;5659;49.408;11.116;2023-09-19T09:16:46;4.32;;;1.70;;
11203;SDS011;5659;49.408;11.116;2023-09-19T09:19:13;2.50;;;1.70;;
11203;SDS011;5659;49.408;11.116;2023-09-19T09:21:42;4.78;;;1.75;;
11203;SDS011;5659;49.408;11.116;2023-09-19T09:24:25;2.88;;;1.98;;
11203;SDS011;5659;49.408;11.116;2023-09-19T09:26:53;4.18;;;1.60;;
11203;SDS011;5659;49.408;11.116;2023-09-19T09:29:38;3.63;;;1.50;;
11203;SDS011;5659;49.408;11.116;2023-09-19T09:34:45;3.72;;;1.40;;
11203;SDS011;5659;49.408;11.116;2023-09-19T09:37:14;4.60;;;1.55;;
11203;SDS011;5659;49.408;11.116;2023-09-19T09:39:40;4.18;;;1.50;;
11203;SDS011;5659;49.408;11.116;2023-09-19T09:42:29;3.58;;;1.73;;
11203;SDS011;5659;49.408;11.116;2023-09-19T09:45:18;5.03;;;1.80;;
11203;SDS011;5659;49.408;11.116;2023-09-19T09:47:47;6.20;;;1.67;;
11203;SDS011;5659;49.408;11.116;2023-09-19T09:50:30;4.65;;;1.60;;
11203;SDS011;5659;49.408;11.116;2023-09-19T09:56:23;3.45;;;1.83;;
11203;SDS011;5659;49.408;11.116;2023-09-19T09:58:50;3.67;;;1.67;;
11203;SDS011;5659;49.408;11.116;2023-09-19T10:01:21;3.15;;;1.60;;
11203;SDS011;5659;49.408;11.116;2023-09-19T10:03:52;2.53;;;1.50;;
11203;SDS011;5659;49.408;11.116;2023-09-19T10:06:22;4.10;;;1.50;;
11203;SDS011;5659;49.408;11.116;2023-09-19T10:11:46;2.47;;;1.40;;
11203;SDS011;5659;49.408;11.116;2023-09-19T10:14:14;2.17;;;1.35;;
11203;SDS011;5659;49.408;11.116;2023-09-19T10:16:50;5.28;;;1.88;;
11203;SDS011;5659;49.408;11.116;2023-09-19T10:19:28;2.88;;;1.73;;
11203;SDS011;5659;49.408;11.116;2023-09-19T10:21:55;5.55;;;2.10;;
11203;SDS011;5659;49.408;11.116;2023-09-19T10:24:21;1.73;;;1.50;;
11203;SDS011;5659;49.408;11.116;2023-09-19T10:26:50;4.80;;;1.60;;
11203;SDS011;5659;49.408;11.116;2023-09-19T10:29:16;2.50;;;1.63;;
11203;SDS011;5659;49.408;11.116;2023-09-19T10:31:43;6.50;;;1.73;;
11203;SDS011;5659;49.408;11.116;2023-09-19T10:34:12;6.80;;;1.52;;
11203;SDS011;5659;49.408;11.116;2023-09-19T10:36:40;5.60;;;1.48;;
11203;SDS011;5659;49.408;11.116;2023-09-19T10:39:10;3.58;;;1.73;;
11203;SDS011;5659;49.408;11.116;2023-09-19T10:41:37;3.80;;;1.90;;
11203;SDS011;5659;49.408;11.116;2023-09-19T10:44:04;3.67;;;1.52;;
11203;SDS011;5659;49.408;11.116;2023-09-19T10:46:31;2.80;;;1.60;;
11203;SDS011;5659;49.408;11.116;2023-09-19T10:48:58;3.35;;;1.83;;
11203;SDS011;5659;49.408;11.116;2023-09-19T10:51:25;3.83;;;1.70;;
11203;SDS011;5659;49.408;11.116;2023-09-19T10:54:01;5.03;;;2.33;;
11203;SDS011;5659;49.408;11.116;2023-09-19T10:56:37;3.08;;;1.70;;
11203;SDS011;5659;49.408;11.116;2023-09-19T10:59:07;5.35;;;1.40;;
11203;SDS011;5659;49.408;11.116;2023-09-19T11:01:41;5.55;;;1.98;;
11203;SDS011;5659;49.408;11.116;2023-09-19T11:04:22;4.28;;;1.45;;
11203;SDS011;5659;49.408;11.116;2023-09-19T11:07:02;2.53;;;1.60;;
11203;SDS011;5659;49.408;11.116;2023-09-19T11:09:45;4.78;;;1.60;;
11203;SDS011;5659;49.408;11.116;2023-09-19T11:12:56;4.70;;;1.95;;
11203;SDS011;5659;49.408;11.116;2023-09-19T11:15:01;2.65;;;1.60;;
11203;SDS011;5659;49.408;11.116;2023-09-19T11:17:42;1.80;;;1.38;;
11203;SDS011;5659;49.408;11.116;2023-09-19T11:20:18;2.40;;;1.60;;
11203;SDS011;5659;49.408;11.116;2023-09-19T11:30:47;3.35;;;1.50;;
11203;SDS011;5659;49.408;11.116;2023-09-19T11:33:31;8.57;;;1.40;;
11203;SDS011;5659;49.408;11.116;2023-09-19T11:43:46;6.20;;;1.35;;
11203;SDS011;5659;49.408;11.116;2023-09-19T11:46:12;3.60;;;1.50;;
11203;SDS011;5659;49.408;11.116;2023-09-19T11:48:41;2.58;;;1.40;;
11203;SDS011;5659;49.408;11.116;2023-09-19T11:51:10;7.82;;;1.60;;
11203;SDS011;5659;49.408;11.116;2023-09-19T11:53:44;2.92;;;1.33;;
11203;SDS011;5659;49.408;11.116;2023-09-19T11:56:13;6.38;;;1.20;;
11203;SDS011;5659;49.408;11.116;2023-09-19T11:58:43;2.85;;;1.15;;
11203;SDS011;5659;49.408;11.116;2023-09-19T12:01:12;2.72;;;1.13;;
11203;SDS011;5659;49.408;11.116;2023-09-19T12:03:45;3.90;;;1.20;;
11203;SDS011;5659;49.408;11.116;2023-09-19T12:06:13;4.20;;;1.40;;
11203;SDS011;5659;49.408;11.116;2023-09-19T12:08:40;5.65;;;1.50;;
11203;SDS011;5659;49.408;11.116;2023-09-19T12:11:07;3.08;;;1.25;;
11203;SDS011;5659;49.408;11.116;2023-09-19T12:13:41;3.97;;;1.50;;
11203;SDS011;5659;49.408;11.116;2023-09-19T12:16:14;3.58;;;1.58;;
11203;SDS011;5659;49.408;11.116;2023-09-19T12:18:41;2.78;;;1.20;;
11203;SDS011;5659;49.408;11.116;2023-09-19T12:21:20;8.05;;;1.40;;
11203;SDS011;5659;49.408;11.116;2023-09-19T12:26:45;1.75;;;1.40;;
11203;SDS011;5659;49.408;11.116;2023-09-19T12:29:19;3.03;;;1.70;;
11203;SDS011;5659;49.408;11.116;2023-09-19T12:34:22;4.00;;;1.40;;
11203;SDS011;5659;49.408;11.116;2023-09-19T12:37:03;2.60;;;1.40;;
11203;SDS011;5659;49.408;11.116;2023-09-19T12:39:30;2.30;;;1.48;;
11203;SDS011;5659;49.408;11.116;2023-09-19T12:41:56;2.20;;;1.30;;
11203;SDS011;5659;49.408;11.116;2023-09-19T12:44:23;1.63;;;1.40;;
11203;SDS011;5659;49.408;11.116;2023-09-19T12:46:50;1.77;;;1.20;;
11203;SDS011;5659;49.408;11.116;2023-09-19T12:51:42;2.17;;;1.38;;
11203;SDS011;5659;49.408;11.116;2023-09-19T12:54:09;3.67;;;1.40;;
11203;SDS011;5659;49.408;11.116;2023-09-19T12:56:40;4.20;;;1.20;;
11203;SDS011;5659;49.408;11.116;2023-09-19T12:59:12;1.80;;;1.20;;
11203;SDS011;5659;49.408;11.116;2023-09-19T13:01:39;3.10;;;1.58;;
11203;SDS011;5659;49.408;11.116;2023-09-19T13:06:43;2.83;;;1.38;;
11203;SDS011;5659;49.408;11.116;2023-09-19T13:09:09;4.20;;;1.60;;
11203;SDS011;5659;49.408;11.116;2023-09-19T13:11:36;4.45;;;1.40;;
11203;SDS011;5659;49.408;11.116;2023-09-19T13:14:24;3.15;;;1.30;;
11203;SDS011;5659;49.408;11.116;2023-09-19T13:17:06;4.50;;;1.40;;
11203;SDS011;5659;49.408;11.116;2023-09-19T13:27:43;3.63;;;1.33;;
11203;SDS011;5659;49.408;11.116;2023-09-19T13:30:10;4.18;;;1.70;;
11203;SDS011;5659;49.408;11.116;2023-09-19T13:32:37;4.85;;;1.50;;
11203;SDS011;5659;49.408;11.116;2023-09-19T13:35:04;9.93;;;1.40;;
11203;SDS011;5659;49.408;11.116;2023-09-19T13:37:33;2.97;;;1.50;;
11203;SDS011;5659;49.408;11.116;2023-09-19T13:40:06;1.85;;;1.27;;
11203;SDS011;5659;49.408;11.116;2023-09-19T13:42:33;2.28;;;1.30;;
11203;SDS011;5659;49.408;11.116;2023-09-19T13:45:01;2.97;;;1.60;;
11203;SDS011;5659;49.408;11.116;2023-09-19T13:47:29;3.88;;;1.40;;
11203;SDS011;5659;49.408;11.116;2023-09-19T13:49:55;3.63;;;1.58;;
11203;SDS011;5659;49.408;11.116;2023-09-19T13:52:22;2.53;;;1.40;;
11203;SDS011;5659;49.408;11.116;2023-09-19T13:54:48;6.05;;;1.60;;
11203;SDS011;5659;49.408;11.116;2023-09-19T13:57:14;2.58;;;1.55;;
11203;SDS011;5659;49.408;11.116;2023-09-19T13:59:41;1.95;;;1.60;;
11203;SDS011;5659;49.408;11.116;2023-09-19T14:02:07;5.10;;;1.63;;
11203;SDS011;5659;49.408;11.116;2023-09-19T14:04:33;5.80;;;1.52;;
11203;SDS011;5659;49.408;11.116;2023-09-19T14:07:02;2.20;;;1.30;;
11203;SDS011;5659;49.408;11.116;2023-09-19T14:09:28;2.25;;;1.30;;
11203;SDS011;5659;49.408;11.116;2023-09-19T14:11:54;3.03;;;1.50;;
11203;SDS011;5659;49.408;11.116;2023-09-19T14:14:20;3.63;;;1.30;;
11203;SDS011;5659;49.408;11.116;2023-09-19T14:16:49;3.17;;;1.50;;
11203;SDS011;5659;49.408;11.116;2023-09-19T14:19:17;6.20;;;1.23;;
11203;SDS011;5659;49.408;11.116;2023-09-19T14:21:43;2.72;;;1.60;;
11203;SDS011;5659;49.408;11.116;2023-09-19T14:24:09;2.53;;;1.33;;
11203;SDS011;5659;49.408;11.116;2023-09-19T14:26:36;6.45;;;1.67;;
11203;SDS011;5659;49.408;11.116;2023-09-19T14:29:02;3.35;;;1.40;;
11203;SDS011;5659;49.408;11.116;2023-09-19T14:31:28;8.10;;;1.60;;
11203;SDS011;5659;49.408;11.116;2023-09-19T14:33:54;2.00;;;1.40;;
11203;SDS011;5659;49.408;11.116;2023-09-19T14:36:21;4.43;;;1.63;;
11203;SDS011;5659;49.408;11.116;2023-09-19T14:38:51;3.45;;;1.67;;
11203;SDS011;5659;49.408;11.116;2023-09-19T14:41:19;2.97;;;1.55;;
11203;SDS011;5659;49.408;11.116;2023-09-19T14:43:46;5.50;;;1.42;;
11203;SDS011;5659;49.408;11.116;2023-09-19T14:46:12;2.58;;;1.58;;
11203;SDS011;5659;49.408;11.116;2023-09-19T14:48:39;2.78;;;1.48;;
11203;SDS011;5659;49.408;11.116;2023-09-19T14:51:08;2.67;;;1.60;;
11203;SDS011;5659;49.408;11.116;2023-09-19T14:53:37;3.97;;;1.35;;
11203;SDS011;5659;49.408;11.116;2023-09-19T14:56:04;2.60;;;1.50;;
11203;SDS011;5659;49.408;11.116;2023-09-19T14:58:31;5.85;;;1.60;;
11203;SDS011;5659;49.408;11.116;2023-09-19T15:03:30;2.95;;;1.35;;
11203;SDS011;5659;49.408;11.116;2023-09-19T15:06:00;4.75;;;1.50;;
11203;SDS011;5659;49.408;11.116;2023-09-19T15:08:26;3.47;;;1.70;;
11203;SDS011;5659;49.408;11.116;2023-09-19T15:10:51;2.65;;;1.30;;
11203;SDS011;5659;49.408;11.116;2023-09-19T15:13:18;3.67;;;1.45;;
11203;SDS011;5659;49.408;11.116;2023-09-19T15:15:44;4.93;;;1.60;;
11203;SDS011;5659;49.408;11.116;2023-09-19T15:18:13;2.97;;;1.45;;
11203;SDS011;5659;49.408;11.116;2023-09-19T15:20:43;2.60;;;1.67;;
11203;SDS011;5659;49.408;11.116;2023-09-19T15:23:09;2.92;;;1.60;;
11203;SDS011;5659;49.408;11.116;2023-09-19T15:25:35;3.58;;;1.38;;
11203;SDS011;5659;49.408;11.116;2023-09-19T15:28:01;5.72;;;1.58;;
11203;SDS011;5659;49.408;11.116;2023-09-19T15:30:36;2.47;;;1.48;;
11203;SDS011;5659;49.408;11.116;2023-09-19T15:33:02;1.63;;;1.10;;
11203;SDS011;5659;49.408;11.116;2023-09-19T15:35:28;3.90;;;1.67;;
11203;SDS011;5659;49.408;11.116;2023-09-19T15:37:54;2.25;;;1.17;;
11203;SDS011;5659;49.408;11.116;2023-09-19T15:40:21;4.90;;;1.45;;
11203;SDS011;5659;49.408;11.116;2023-09-19T15:42:50;3.05;;;1.42;;
11203;SDS011;5659;49.408;11.116;2023-09-19T15:45:16;3.30;;;1.40;;
11203;SDS011;5659;49.408;11.116;2023-09-19T15:47:44;2.65;;;1.33;;
11203;SDS011;5659;49.408;11.116;2023-09-19T15:50:10;3.38;;;1.30;;
11203;SDS011;5659;49.408;11.116;2023-09-19T15:52:39;5.30;;;1.60;;
11203;SDS011;5659;49.408;11.116;2023-09-19T15:55:05;2.90;;;1.30;;
11203;SDS011;5659;49.408;11.116;2023-09-19T15:57:32;4.18;;;1.58;;